createdAt,value
2017-05-17T00:00:09.510Z,8.34
2017-05-17T00:01:19.771Z,8.35
2017-05-17T00:02:30.026Z,8.32
2017-05-17T00:03:40.290Z,8.34
2017-05-17T00:04:50.603Z,8.32
2017-05-17T00:06:00.866Z,8.41
2017-05-17T00:07:11.122Z,8.42
2017-05-17T00:08:21.385Z,8.38
2017-05-17T00:09:31.339Z,8.38
2017-05-17T00:10:41.287Z,8.34
2017-05-17T00:11:51.554Z,8.35
2017-05-17T00:13:01.815Z,8.26
2017-05-17T00:14:12.084Z,8.27
2017-05-17T00:15:22.029Z,8.26
2017-05-17T00:16:31.979Z,8.28
2017-05-17T00:17:42.240Z,8.27
2017-05-17T00:18:52.527Z,8.31
2017-05-17T00:20:02.790Z,8.34
2017-05-17T00:21:12.743Z,8.27
2017-05-17T00:22:22.998Z,8.23
2017-05-17T00:23:33.260Z,8.2
2017-05-17T00:24:43.515Z,8.31
2017-05-17T00:25:53.778Z,8.23
2017-05-17T00:27:04.040Z,8.18
2017-05-17T00:28:14.046Z,8.18
2017-05-17T00:29:24.001Z,8.21
2017-05-17T00:30:34.263Z,8.16
2017-05-17T00:31:44.525Z,8.17
2017-05-17T00:32:54.834Z,8.23
2017-05-17T00:34:05.102Z,8.23
2017-05-17T00:35:15.361Z,8.26
2017-05-17T00:36:25.624Z,8.32
2017-05-17T00:37:35.562Z,8.35
2017-05-17T00:38:45.819Z,8.34
2017-05-17T00:39:55.770Z,8.42
2017-05-17T00:41:06.030Z,8.39
2017-05-17T00:42:16.350Z,8.41
2017-05-17T00:43:26.618Z,8.41
2017-05-17T00:44:36.885Z,8.61
2017-05-17T00:45:46.834Z,8.57
2017-05-17T00:46:57.089Z,8.57
2017-05-17T00:48:07.357Z,8.66
2017-05-17T00:49:17.626Z,8.68
2017-05-17T00:50:27.895Z,8.78
2017-05-17T00:51:38.157Z,8.78
2017-05-17T00:52:48.426Z,8.71
2017-05-17T00:53:58.700Z,8.77
2017-05-17T00:55:08.971Z,8.75
2017-05-17T00:56:19.231Z,8.75
2017-05-17T00:57:29.500Z,8.78
2017-05-17T00:58:39.767Z,8.74
2017-05-17T00:59:50.027Z,8.78
2017-05-17T01:01:00.284Z,8.74
2017-05-17T01:02:10.548Z,8.77
2017-05-17T01:03:20.808Z,8.77
2017-05-17T01:04:31.069Z,8.77
2017-05-17T01:05:41.334Z,8.74
2017-05-17T01:06:51.644Z,8.78
2017-05-17T01:08:01.909Z,8.82
2017-05-17T01:09:11.858Z,8.79
2017-05-17T01:10:21.808Z,8.72
2017-05-17T01:11:32.074Z,8.69
2017-05-17T01:12:42.337Z,8.66
2017-05-17T01:13:52.604Z,8.71
2017-05-17T01:15:02.872Z,8.69
2017-05-17T01:16:12.818Z,8.52
2017-05-17T01:17:22.768Z,8.54
2017-05-17T01:18:33.029Z,8.66
2017-05-17T01:19:43.291Z,8.71
2017-05-17T01:20:53.559Z,8.56
2017-05-17T01:22:03.819Z,8.69
2017-05-17T01:23:14.407Z,8.71
2017-05-17T01:24:24.678Z,8.61
2017-05-17T01:25:34.944Z,8.64
2017-05-17T01:26:45.207Z,8.66
2017-05-17T01:27:55.527Z,8.61
2017-05-17T01:29:05.790Z,8.56
2017-05-17T01:30:15.738Z,8.45
2017-05-17T01:31:25.996Z,8.52
2017-05-17T01:32:36.264Z,8.39
2017-05-17T01:33:46.212Z,8.41
2017-05-17T01:34:56.492Z,8.41
2017-05-17T01:36:06.758Z,8.41
2017-05-17T01:37:17.020Z,8.36
2017-05-17T01:38:27.296Z,8.35
2017-05-17T01:39:37.564Z,8.35
2017-05-17T01:40:47.829Z,8.36
2017-05-17T01:41:58.095Z,8.28
2017-05-17T01:43:08.362Z,8.32
2017-05-17T01:44:18.625Z,8.28
2017-05-17T01:45:28.887Z,8.26
2017-05-17T01:46:39.153Z,8.26
2017-05-17T01:47:49.420Z,8.28
2017-05-17T01:48:59.369Z,8.27
2017-05-17T01:50:09.632Z,8.23
2017-05-17T01:51:19.907Z,8.23
2017-05-17T01:52:29.857Z,8.21
2017-05-17T01:53:40.127Z,8.18
2017-05-17T01:54:50.386Z,8.21
2017-05-17T01:56:00.649Z,8.21
2017-05-17T01:57:09.971Z,8.2
2017-05-17T01:58:20.234Z,8.27
2017-05-17T01:59:30.188Z,8.26
2017-05-17T02:00:40.452Z,8.31
2017-05-17T02:01:50.716Z,8.24
2017-05-17T02:03:00.987Z,8.26
2017-05-17T02:04:11.253Z,8.28
2017-05-17T02:05:21.520Z,8.24
2017-05-17T02:06:31.466Z,8.23
2017-05-17T02:07:41.724Z,8.24
2017-05-17T02:08:51.989Z,8.21
2017-05-17T02:10:01.951Z,8.23
2017-05-17T02:11:12.211Z,8.21
2017-05-17T02:12:22.474Z,8.18
2017-05-17T02:13:32.740Z,8.18
2017-05-17T02:14:42.699Z,8.18
2017-05-17T02:15:52.958Z,8.2
2017-05-17T02:17:03.221Z,8.24
2017-05-17T02:18:13.166Z,8.2
2017-05-17T02:19:23.116Z,8.26
2017-05-17T02:20:32.755Z,8.26
2017-05-17T02:21:43.017Z,8.21
2017-05-17T02:22:53.282Z,8.28
2017-05-17T02:24:03.546Z,8.26
2017-05-17T02:25:13.808Z,8.28
2017-05-17T02:26:24.071Z,8.28
2017-05-17T02:27:34.020Z,8.26
2017-05-17T02:28:44.285Z,8.21
2017-05-17T02:29:54.554Z,8.26
2017-05-17T02:31:04.818Z,8.28
2017-05-17T02:32:15.078Z,8.28
2017-05-17T02:33:25.027Z,8.18
2017-05-17T02:34:35.292Z,8.2
2017-05-17T02:35:44.930Z,8.18
2017-05-17T02:36:55.191Z,8.28
2017-05-17T02:38:05.502Z,8.27
2017-05-17T02:39:15.143Z,8.36
2017-05-17T02:40:25.405Z,8.31
2017-05-17T02:41:35.669Z,8.36
2017-05-17T02:42:45.619Z,8.36
2017-05-17T02:43:55.877Z,8.38
2017-05-17T02:45:05.834Z,8.36
2017-05-17T02:46:15.473Z,8.42
2017-05-17T02:47:25.734Z,8.41
2017-05-17T02:48:35.990Z,8.42
2017-05-17T02:49:46.251Z,8.39
2017-05-17T02:50:56.518Z,8.38
2017-05-17T02:52:06.787Z,8.42
2017-05-17T02:53:17.067Z,8.36
2017-05-17T02:54:27.331Z,8.44
2017-05-17T02:55:37.593Z,8.41
2017-05-17T02:56:47.543Z,8.39
2017-05-17T02:57:57.806Z,8.39
2017-05-17T02:59:08.065Z,8.39
2017-05-17T03:00:18.010Z,8.35
2017-05-17T03:01:28.268Z,8.36
2017-05-17T03:02:38.528Z,8.38
2017-05-17T03:03:48.793Z,8.34
2017-05-17T03:04:59.057Z,8.35
2017-05-17T03:06:09.016Z,8.41
2017-05-17T03:07:19.276Z,8.39
2017-05-17T03:08:29.278Z,8.36
2017-05-17T03:09:39.542Z,8.36
2017-05-17T03:10:49.804Z,8.39
2017-05-17T03:12:00.112Z,8.41
2017-05-17T03:13:10.067Z,8.36
2017-05-17T03:14:20.327Z,8.39
2017-05-17T03:15:30.274Z,8.32
2017-05-17T03:16:40.535Z,8.42
2017-05-17T03:17:50.798Z,8.39
2017-05-17T03:19:01.058Z,8.38
2017-05-17T03:20:11.004Z,8.39
2017-05-17T03:21:21.267Z,8.32
2017-05-17T03:22:31.531Z,8.34
2017-05-17T03:23:41.795Z,8.39
2017-05-17T03:24:52.068Z,8.35
2017-05-17T03:26:02.331Z,8.34
2017-05-17T03:27:12.283Z,8.31
2017-05-17T03:28:22.549Z,8.28
2017-05-17T03:29:32.494Z,8.27
2017-05-17T03:30:42.446Z,8.31
2017-05-17T03:31:52.705Z,8.28
2017-05-17T03:33:02.655Z,8.35
2017-05-17T03:34:12.606Z,8.36
2017-05-17T03:35:22.872Z,8.36
2017-05-17T03:36:32.820Z,8.36
2017-05-17T03:37:43.099Z,8.36
2017-05-17T03:38:53.053Z,8.42
2017-05-17T03:40:03.330Z,8.46
2017-05-17T03:41:13.281Z,8.41
2017-05-17T03:42:23.538Z,8.38
2017-05-17T03:43:34.108Z,8.41
2017-05-17T03:44:44.061Z,8.42
2017-05-17T03:45:54.328Z,8.49
2017-05-17T03:47:04.590Z,8.42
2017-05-17T03:48:14.859Z,8.44
2017-05-17T03:49:25.127Z,8.46
2017-05-17T03:50:35.072Z,8.54
2017-05-17T03:51:45.338Z,8.57
2017-05-17T03:52:55.602Z,8.53
2017-05-17T03:54:05.870Z,8.57
2017-05-17T03:55:16.131Z,8.56
2017-05-17T03:56:26.391Z,8.61
2017-05-17T03:57:36.659Z,8.54
2017-05-17T03:58:46.925Z,8.63
2017-05-17T03:59:56.883Z,8.71
2017-05-17T04:01:07.155Z,8.63
2017-05-17T04:02:17.417Z,8.74
2017-05-17T04:03:27.363Z,8.78
2017-05-17T04:04:37.687Z,8.74
2017-05-17T04:05:47.953Z,8.81
2017-05-17T04:06:57.903Z,8.82
2017-05-17T04:08:08.164Z,8.87
2017-05-17T04:09:17.799Z,8.86
2017-05-17T04:10:28.064Z,8.84
2017-05-17T04:11:38.330Z,8.77
2017-05-17T04:12:48.590Z,8.72
2017-05-17T04:13:58.552Z,8.68
2017-05-17T04:15:08.823Z,8.54
2017-05-17T04:16:19.090Z,8.49
2017-05-17T04:17:29.343Z,8.45
2017-05-17T04:18:39.616Z,8.44
2017-05-17T04:19:49.890Z,8.42
2017-05-17T04:21:00.151Z,8.39
2017-05-17T04:22:10.098Z,8.42
2017-05-17T04:23:20.358Z,8.41
2017-05-17T04:24:30.627Z,8.36
2017-05-17T04:25:40.889Z,8.41
2017-05-17T04:26:51.157Z,8.41
2017-05-17T04:28:01.417Z,8.39
2017-05-17T04:29:11.680Z,8.45
2017-05-17T04:30:21.626Z,8.49
2017-05-17T04:31:31.579Z,8.49
2017-05-17T04:32:41.528Z,8.41
2017-05-17T04:33:51.792Z,8.57
2017-05-17T04:35:02.054Z,8.59
2017-05-17T04:36:12.319Z,8.54
2017-05-17T04:37:21.950Z,8.59
2017-05-17T04:38:31.900Z,8.63
2017-05-17T04:39:42.161Z,8.71
2017-05-17T04:40:52.427Z,8.72
2017-05-17T04:42:02.690Z,8.77
2017-05-17T04:43:12.957Z,8.77
2017-05-17T04:44:23.220Z,8.75
2017-05-17T04:45:33.173Z,8.86
2017-05-17T04:46:43.433Z,8.96
2017-05-17T04:47:53.699Z,8.95
2017-05-17T04:49:03.954Z,8.97
2017-05-17T04:50:14.210Z,8.97
2017-05-17T04:51:24.151Z,9.02
2017-05-17T04:52:34.096Z,9.03
2017-05-17T04:53:44.366Z,9.03
2017-05-17T04:54:54.643Z,9.09
2017-05-17T04:56:04.916Z,9.09
2017-05-17T04:57:14.869Z,9.13
2017-05-17T04:58:25.126Z,9.18
2017-05-17T04:59:35.390Z,9.16
2017-05-17T05:00:45.653Z,9.34
2017-05-17T05:01:55.923Z,9.3
2017-05-17T05:03:06.186Z,9.33
2017-05-17T05:04:16.449Z,9.37
2017-05-17T05:05:26.712Z,9.45
2017-05-17T05:06:36.971Z,9.47
2017-05-17T05:07:47.249Z,9.55
2017-05-17T05:08:57.535Z,9.54
2017-05-17T05:10:07.841Z,9.62
2017-05-17T05:11:17.787Z,9.64
2017-05-17T05:12:28.051Z,9.59
2017-05-17T05:13:38.372Z,9.73
2017-05-17T05:14:48.319Z,9.85
2017-05-17T05:15:58.588Z,9.82
2017-05-17T05:17:08.856Z,9.77
2017-05-17T05:18:18.487Z,9.87
2017-05-17T05:19:28.748Z,9.84
2017-05-17T05:20:38.702Z,9.85
2017-05-17T05:21:48.963Z,9.95
2017-05-17T05:22:59.243Z,10.07
2017-05-17T05:24:09.513Z,10.17
2017-05-17T05:25:19.781Z,10.15
2017-05-17T05:26:29.731Z,10.23
2017-05-17T05:27:39.997Z,10.23
2017-05-17T05:28:50.271Z,10.25
2017-05-17T05:30:00.533Z,10.34
2017-05-17T05:31:10.799Z,10.38
2017-05-17T05:32:20.772Z,10.42
2017-05-17T05:33:31.089Z,10.41
2017-05-17T05:34:41.367Z,10.53
2017-05-17T05:35:51.627Z,10.58
2017-05-17T05:37:01.918Z,10.55
2017-05-17T05:38:11.873Z,10.71
2017-05-17T05:39:21.821Z,10.68
2017-05-17T05:40:34.090Z,10.76
2017-05-17T05:41:43.731Z,10.84
2017-05-17T05:42:53.993Z,10.84
2017-05-17T05:44:04.321Z,10.83
2017-05-17T05:45:14.593Z,10.95
2017-05-17T05:46:24.861Z,11.05
2017-05-17T05:47:34.810Z,11.04
2017-05-17T05:48:45.125Z,11.04
2017-05-17T05:49:55.383Z,11.05
2017-05-17T05:51:05.656Z,11.22
2017-05-17T05:52:18.562Z,11.19
2017-05-17T05:53:28.830Z,11.3
2017-05-17T05:54:39.093Z,11.33
2017-05-17T05:55:49.361Z,11.37
2017-05-17T05:56:59.626Z,11.38
2017-05-17T05:58:09.573Z,11.41
2017-05-17T05:59:19.522Z,11.44
2017-05-17T06:00:29.787Z,11.52
2017-05-17T06:01:40.062Z,11.51
2017-05-17T06:02:50.336Z,11.51
2017-05-17T06:04:00.657Z,11.55
2017-05-17T06:05:10.928Z,11.59
2017-05-17T06:06:20.877Z,11.73
2017-05-17T06:07:31.136Z,11.76
2017-05-17T06:08:41.088Z,11.83
2017-05-17T06:09:51.353Z,11.83
2017-05-17T06:11:01.618Z,11.91
2017-05-17T06:12:11.884Z,11.99
2017-05-17T06:13:21.829Z,12.12
2017-05-17T06:14:32.099Z,12.12
2017-05-17T06:15:42.365Z,12.2
2017-05-17T06:16:52.315Z,12.28
2017-05-17T06:18:02.275Z,12.18
2017-05-17T06:19:12.546Z,12.3
2017-05-17T06:20:22.814Z,12.28
2017-05-17T06:21:33.085Z,12.36
2017-05-17T06:22:43.351Z,12.43
2017-05-17T06:23:53.619Z,12.48
2017-05-17T06:25:03.574Z,12.54
2017-05-17T06:26:13.582Z,12.66
2017-05-17T06:27:23.850Z,12.68
2017-05-17T06:28:34.117Z,12.81
2017-05-17T06:29:44.070Z,12.78
2017-05-17T06:30:54.034Z,12.93
2017-05-17T06:32:04.294Z,12.86
2017-05-17T06:33:14.249Z,12.98
2017-05-17T06:34:24.210Z,12.95
2017-05-17T06:35:34.484Z,13.11
2017-05-17T06:36:44.753Z,13.09
2017-05-17T06:37:54.713Z,13.12
2017-05-17T06:39:04.662Z,13.21
2017-05-17T06:40:14.934Z,13.28
2017-05-17T06:41:24.889Z,13.16
2017-05-17T06:42:35.155Z,12.88
2017-05-17T06:43:45.428Z,12.51
2017-05-17T06:44:55.696Z,12.51
2017-05-17T06:46:05.967Z,12.63
2017-05-17T06:47:16.237Z,12.68
2017-05-17T06:48:26.506Z,12.62
2017-05-17T06:49:36.781Z,12.81
2017-05-17T06:50:47.043Z,12.99
2017-05-17T06:51:57.312Z,13.05
2017-05-17T06:53:07.571Z,13.09
2017-05-17T06:54:17.212Z,12.9
2017-05-17T06:55:27.485Z,12.87
2017-05-17T06:56:37.758Z,12.68
2017-05-17T06:57:48.034Z,12.81
2017-05-17T06:58:58.298Z,12.65
2017-05-17T07:00:08.566Z,12.5
2017-05-17T07:01:18.837Z,12.3
2017-05-17T07:02:29.108Z,12.14
2017-05-17T07:03:39.392Z,11.96
2017-05-17T07:04:49.662Z,11.85
2017-05-17T07:05:59.928Z,11.86
2017-05-17T07:07:09.891Z,11.77
2017-05-17T07:08:20.156Z,11.77
2017-05-17T07:09:30.427Z,11.63
2017-05-17T07:10:40.690Z,11.56
2017-05-17T07:11:50.641Z,11.6
2017-05-17T07:13:00.914Z,11.67
2017-05-17T07:14:10.866Z,11.81
2017-05-17T07:15:21.127Z,11.96
2017-05-17T07:16:31.406Z,12.03
2017-05-17T07:17:41.677Z,12.11
2017-05-17T07:18:51.943Z,12.12
2017-05-17T07:20:02.229Z,12.11
2017-05-17T07:21:12.502Z,12.07
2017-05-17T07:22:22.769Z,12
2017-05-17T07:23:33.034Z,12.21
2017-05-17T07:24:42.993Z,12.26
2017-05-17T07:25:52.947Z,12.26
2017-05-17T07:27:03.257Z,12.25
2017-05-17T07:28:13.530Z,12.39
2017-05-17T07:29:23.807Z,12.47
2017-05-17T07:30:33.754Z,12.5
2017-05-17T07:31:44.022Z,12.55
2017-05-17T07:32:54.301Z,12.51
2017-05-17T07:34:04.568Z,12.47
2017-05-17T07:35:14.838Z,12.5
2017-05-17T07:36:25.100Z,12.58
2017-05-17T07:37:35.373Z,12.65
2017-05-17T07:38:45.642Z,12.63
2017-05-17T07:39:55.594Z,12.5
2017-05-17T07:41:05.859Z,12.5
2017-05-17T07:42:15.808Z,12.69
2017-05-17T07:43:26.076Z,12.86
2017-05-17T07:44:36.359Z,12.63
2017-05-17T07:45:46.623Z,12.83
2017-05-17T07:46:56.888Z,12.84
2017-05-17T07:48:07.165Z,12.95
2017-05-17T07:49:17.429Z,12.84
2017-05-17T07:50:27.693Z,12.95
2017-05-17T07:51:37.960Z,13.01
2017-05-17T07:52:48.225Z,12.99
2017-05-17T07:53:58.491Z,13.01
2017-05-17T07:55:08.761Z,13.09
2017-05-17T07:56:18.400Z,13.17
2017-05-17T07:57:28.667Z,13.12
2017-05-17T07:58:38.935Z,13.21
2017-05-17T07:59:49.202Z,13.27
2017-05-17T08:00:59.483Z,13.2
2017-05-17T08:02:09.750Z,13.19
2017-05-17T08:03:19.706Z,13.28
2017-05-17T08:04:29.986Z,13.28
2017-05-17T08:05:40.258Z,13.27
2017-05-17T08:06:50.212Z,13.26
2017-05-17T08:08:00.473Z,13.28
2017-05-17T08:09:10.438Z,13.27
2017-05-17T08:10:20.393Z,13.31
2017-05-17T08:11:30.348Z,13.16
2017-05-17T08:12:40.300Z,13.24
2017-05-17T08:13:50.571Z,13.31
2017-05-17T08:15:00.840Z,13.42
2017-05-17T08:16:10.162Z,13.37
2017-05-17T08:17:19.484Z,13.4
2017-05-17T08:18:29.455Z,13.39
2017-05-17T08:19:39.729Z,13.49
2017-05-17T08:20:50.019Z,13.61
2017-05-17T08:22:00.290Z,13.54
2017-05-17T08:23:10.556Z,13.46
2017-05-17T08:24:20.826Z,13.31
2017-05-17T08:25:31.095Z,13.19
2017-05-17T08:26:41.364Z,13.02
2017-05-17T08:27:51.321Z,12.94
2017-05-17T08:29:01.276Z,12.83
2017-05-17T08:30:11.548Z,12.63
2017-05-17T08:31:21.821Z,12.63
2017-05-17T08:32:31.775Z,12.72
2017-05-17T08:33:41.734Z,12.72
2017-05-17T08:34:52.001Z,12.81
2017-05-17T08:36:01.959Z,12.9
2017-05-17T08:37:12.238Z,12.98
2017-05-17T08:38:22.194Z,12.95
2017-05-17T08:39:32.469Z,13.01
2017-05-17T08:40:42.743Z,13.05
2017-05-17T08:41:53.008Z,13.21
2017-05-17T08:43:02.963Z,13.31
2017-05-17T08:44:12.920Z,13.39
2017-05-17T08:45:23.228Z,13.43
2017-05-17T08:46:33.499Z,13.43
2017-05-17T08:47:43.762Z,13.33
2017-05-17T08:48:54.028Z,13.42
2017-05-17T08:50:04.299Z,13.4
2017-05-17T08:51:14.570Z,13.3
2017-05-17T08:52:24.837Z,13.46
2017-05-17T08:53:35.101Z,13.49
2017-05-17T08:54:44.740Z,13.58
2017-05-17T08:55:54.704Z,13.67
2017-05-17T08:57:04.972Z,13.73
2017-05-17T08:58:15.255Z,13.82
2017-05-17T08:59:25.522Z,13.82
2017-05-17T09:00:35.476Z,13.83
2017-05-17T09:01:45.749Z,13.94
2017-05-17T09:02:56.017Z,14.05
2017-05-17T09:04:06.282Z,14.16
2017-05-17T09:05:16.559Z,14.11
2017-05-17T09:06:26.203Z,14.07
2017-05-17T09:07:36.482Z,14.3
2017-05-17T09:08:46.753Z,14.36
2017-05-17T09:09:57.018Z,14.45
2017-05-17T09:11:06.980Z,14.41
2017-05-17T09:12:17.241Z,14.49
2017-05-17T09:13:27.514Z,14.73
2017-05-17T09:14:37.784Z,14.85
2017-05-17T09:15:48.060Z,14.87
2017-05-17T09:16:58.015Z,15
2017-05-17T09:18:08.279Z,15.18
2017-05-17T09:19:18.304Z,15.27
2017-05-17T09:20:28.265Z,15.41
2017-05-17T09:21:38.528Z,15.5
2017-05-17T09:22:48.484Z,15.62
2017-05-17T09:23:58.750Z,15.7
2017-05-17T09:25:09.016Z,15.76
2017-05-17T09:26:18.967Z,15.9
2017-05-17T09:27:29.239Z,16.03
2017-05-17T09:28:39.509Z,16.18
2017-05-17T09:29:49.159Z,16.32
2017-05-17T09:30:59.436Z,16.49
2017-05-17T09:32:09.075Z,16.57
2017-05-17T09:33:19.033Z,16.68
2017-05-17T09:34:29.300Z,16.72
2017-05-17T09:35:39.576Z,16.74
2017-05-17T09:36:49.849Z,16.83
2017-05-17T09:38:00.119Z,16.91
2017-05-17T09:39:10.410Z,16.95
2017-05-17T09:40:20.682Z,17.09
2017-05-17T09:41:30.952Z,17.07
2017-05-17T09:42:41.222Z,17.13
2017-05-17T09:43:51.500Z,17.07
2017-05-17T09:45:01.779Z,17.28
2017-05-17T09:46:12.063Z,17.3
2017-05-17T09:47:22.340Z,17.34
2017-05-17T09:48:32.306Z,17.27
2017-05-17T09:49:42.594Z,17.38
2017-05-17T09:50:52.871Z,17.35
2017-05-17T09:52:03.142Z,17.22
2017-05-17T09:53:13.101Z,17.27
2017-05-17T09:54:23.371Z,17.17
2017-05-17T09:55:33.647Z,17.17
2017-05-17T09:56:43.923Z,17.22
2017-05-17T09:57:54.199Z,17.22
2017-05-17T09:59:17.205Z,17.22
2017-05-17T10:00:27.477Z,17.13
2017-05-17T10:01:37.430Z,17.27
2017-05-17T10:02:47.699Z,17.07
2017-05-17T10:03:57.966Z,17.02
2017-05-17T10:05:07.608Z,17.02
2017-05-17T10:06:17.883Z,17.05
2017-05-17T10:07:27.842Z,16.97
2017-05-17T10:08:38.109Z,16.82
2017-05-17T10:09:48.061Z,16.73
2017-05-17T10:10:58.334Z,16.72
2017-05-17T10:12:08.663Z,16.58
2017-05-17T10:13:18.621Z,16.65
2017-05-17T10:14:28.891Z,16.41
2017-05-17T10:15:38.842Z,16.43
2017-05-17T10:16:49.118Z,16.26
2017-05-17T10:17:59.389Z,16.24
2017-05-17T10:19:09.347Z,16.25
2017-05-17T10:20:19.616Z,16.22
2017-05-17T10:21:29.580Z,16.22
2017-05-17T10:22:39.844Z,16.25
2017-05-17T10:23:50.114Z,16.25
2017-05-17T10:25:00.075Z,16.26
2017-05-17T10:26:10.026Z,16.41
2017-05-17T10:27:19.670Z,16.31
2017-05-17T10:28:29.622Z,16.29
2017-05-17T10:29:39.884Z,16.32
2017-05-17T10:30:50.158Z,16.18
2017-05-17T10:32:00.426Z,16.05
2017-05-17T10:33:10.104Z,15.96
2017-05-17T10:34:20.061Z,15.87
2017-05-17T10:35:30.334Z,15.85
2017-05-17T10:36:40.630Z,16.05
2017-05-17T10:37:50.896Z,16.16
2017-05-17T10:39:00.852Z,16.31
2017-05-17T10:40:11.133Z,16.39
2017-05-17T10:41:21.404Z,16.58
2017-05-17T10:42:31.676Z,16.54
2017-05-17T10:43:41.955Z,16.77
2017-05-17T10:44:51.916Z,16.69
2017-05-17T10:46:02.183Z,16.83
2017-05-17T10:47:11.829Z,17.01
2017-05-17T10:48:22.095Z,16.99
2017-05-17T10:49:32.665Z,17.13
2017-05-17T10:50:42.932Z,17.27
2017-05-17T10:51:53.195Z,17.2
2017-05-17T10:53:03.153Z,17.27
2017-05-17T10:54:13.421Z,17.28
2017-05-17T10:55:23.703Z,17.34
2017-05-17T10:56:33.660Z,17.46
2017-05-17T10:57:43.928Z,17.42
2017-05-17T10:58:54.205Z,17.5
2017-05-17T11:00:04.164Z,17.53
2017-05-17T11:01:14.119Z,17.52
2017-05-17T11:02:24.393Z,17.73
2017-05-17T11:03:34.668Z,17.75
2017-05-17T11:04:44.938Z,17.86
2017-05-17T11:05:55.212Z,17.93
2017-05-17T11:07:05.483Z,17.97
2017-05-17T11:08:15.759Z,17.94
2017-05-17T11:09:26.043Z,17.86
2017-05-17T11:10:36.319Z,17.88
2017-05-17T11:11:46.598Z,17.9
2017-05-17T11:12:56.920Z,17.98
2017-05-17T11:14:06.896Z,18.11
2017-05-17T11:15:16.544Z,18.16
2017-05-17T11:16:26.815Z,18.24
2017-05-17T11:17:37.088Z,18.12
2017-05-17T11:18:47.362Z,18.12
2017-05-17T11:19:57.319Z,18.03
2017-05-17T11:21:07.594Z,18.02
2017-05-17T11:22:17.866Z,18.05
2017-05-17T11:23:28.148Z,18.16
2017-05-17T11:24:38.417Z,18.27
2017-05-17T11:25:48.685Z,18.41
2017-05-17T11:26:58.965Z,18.51
2017-05-17T11:28:08.927Z,18.73
2017-05-17T11:29:18.569Z,18.91
2017-05-17T11:30:28.211Z,19.05
2017-05-17T11:31:38.487Z,19.15
2017-05-17T11:32:48.447Z,19.37
2017-05-17T11:33:58.773Z,19.47
2017-05-17T11:35:09.048Z,19.56
2017-05-17T11:36:19.003Z,19.62
2017-05-17T11:37:29.270Z,19.48
2017-05-17T11:38:39.234Z,19.48
2017-05-17T11:39:49.517Z,19.47
2017-05-17T11:40:59.786Z,19.38
2017-05-17T11:42:09.753Z,19.41
2017-05-17T11:43:19.712Z,19.42
2017-05-17T11:44:29.667Z,19.26
2017-05-17T11:45:39.939Z,19.19
2017-05-17T11:46:50.225Z,19.08
2017-05-17T11:48:00.180Z,18.96
2017-05-17T11:49:10.456Z,18.85
2017-05-17T11:50:20.732Z,18.94
2017-05-17T11:51:31.002Z,18.85
2017-05-17T11:52:41.271Z,18.76
2017-05-17T11:53:51.549Z,18.76
2017-05-17T11:55:01.510Z,18.68
2017-05-17T11:56:11.465Z,18.52
2017-05-17T11:57:21.743Z,18.41
2017-05-17T11:58:31.698Z,18.33
2017-05-17T11:59:41.980Z,18.18
2017-05-17T12:00:52.260Z,18.15
2017-05-17T12:02:02.541Z,18.09
2017-05-17T12:03:12.807Z,18.05
2017-05-17T12:04:22.776Z,18.13
2017-05-17T12:05:33.047Z,18.21
2017-05-17T12:06:43.314Z,18.11
2017-05-17T12:07:53.587Z,18.03
2017-05-17T12:09:03.860Z,17.95
2017-05-17T12:10:13.192Z,17.86
2017-05-17T12:11:23.175Z,17.76
2017-05-17T12:12:33.443Z,17.72
2017-05-17T12:13:43.088Z,17.6
2017-05-17T12:14:53.360Z,17.76
2017-05-17T12:16:03.629Z,17.76
2017-05-17T12:17:13.899Z,17.84
2017-05-17T12:18:23.539Z,18
2017-05-17T12:19:33.810Z,17.95
2017-05-17T12:20:44.083Z,18.09
2017-05-17T12:21:54.354Z,18.15
2017-05-17T12:23:04.626Z,18.21
2017-05-17T12:24:14.896Z,18.28
2017-05-17T12:25:25.167Z,18.43
2017-05-17T12:26:35.496Z,18.33
2017-05-17T12:27:45.450Z,18.55
2017-05-17T12:28:55.723Z,18.51
2017-05-17T12:30:05.994Z,18.46
2017-05-17T12:31:16.267Z,18.46
2017-05-17T12:32:26.538Z,18.43
2017-05-17T12:33:36.822Z,18.3
2017-05-17T12:34:47.092Z,18.26
2017-05-17T12:35:57.366Z,18.26
2017-05-17T12:37:07.636Z,18.08
2017-05-17T12:38:17.614Z,18.13
2017-05-17T12:39:27.263Z,18.09
2017-05-17T12:40:37.536Z,18.11
2017-05-17T12:41:47.493Z,18.06
2017-05-17T12:42:57.450Z,17.94
2017-05-17T12:44:07.734Z,17.95
2017-05-17T12:45:17.700Z,17.97
2017-05-17T12:46:27.967Z,17.97
2017-05-17T12:47:38.234Z,17.98
2017-05-17T12:48:48.503Z,17.98
2017-05-17T12:49:58.149Z,18
2017-05-17T12:51:08.101Z,17.98
2017-05-17T12:52:17.739Z,18
2017-05-17T12:53:28.009Z,17.95
2017-05-17T12:54:38.289Z,18.02
2017-05-17T12:55:48.563Z,17.95
2017-05-17T12:56:58.514Z,17.94
2017-05-17T12:58:08.465Z,17.93
2017-05-17T12:59:18.435Z,17.84
2017-05-17T13:00:28.708Z,17.93
2017-05-17T13:01:38.673Z,17.97
2017-05-17T13:02:48.630Z,18.02
2017-05-17T13:03:58.590Z,18.09
2017-05-17T13:05:08.545Z,18.08
2017-05-17T13:06:18.498Z,18.12
2017-05-17T13:07:28.772Z,18.06
2017-05-17T13:08:38.731Z,18.16
2017-05-17T13:09:48.997Z,18.31
2017-05-17T13:10:59.270Z,18.26
2017-05-17T13:12:09.228Z,18.43
2017-05-17T13:13:18.912Z,18.48
2017-05-17T13:14:29.198Z,18.43
2017-05-17T13:15:39.156Z,18.52
2017-05-17T13:16:49.169Z,18.61
2017-05-17T13:17:59.135Z,18.86
2017-05-17T13:19:09.096Z,18.86
2017-05-17T13:20:19.047Z,19.01
2017-05-17T13:21:29.314Z,19.17
2017-05-17T13:22:39.585Z,19.27
2017-05-17T13:23:49.858Z,19.42
2017-05-17T13:24:59.818Z,19.39
2017-05-17T13:26:09.460Z,19.48
2017-05-17T13:27:19.102Z,19.59
2017-05-17T13:28:29.371Z,19.63
2017-05-17T13:29:39.020Z,19.78
2017-05-17T13:30:49.295Z,19.97
2017-05-17T13:31:59.575Z,20.12
2017-05-17T13:33:09.849Z,20.24
2017-05-17T13:34:19.820Z,20.22
2017-05-17T13:35:30.131Z,20.44
2017-05-17T13:36:40.401Z,20.73
2017-05-17T13:37:50.680Z,20.8
2017-05-17T13:39:00.956Z,20.89
2017-05-17T13:40:11.222Z,21.38
2017-05-17T13:41:21.498Z,22.15
2017-05-17T13:42:31.766Z,22.74
2017-05-17T13:43:42.035Z,22.98
2017-05-17T13:44:52.365Z,23.34
2017-05-17T13:46:02.642Z,23.99
2017-05-17T13:47:12.607Z,24.32
2017-05-17T13:48:22.876Z,24.46
2017-05-17T13:49:33.154Z,25.21
2017-05-17T13:50:43.170Z,25.68
2017-05-17T13:51:53.129Z,25.93
2017-05-17T13:53:02.790Z,25.96
2017-05-17T13:54:12.441Z,26.07
2017-05-17T13:55:32.668Z,25.98
2017-05-17T13:56:43.158Z,25.78
2017-05-17T13:57:53.446Z,25.66
2017-05-17T13:59:03.779Z,25.56
2017-05-17T14:00:14.059Z,25.4
2017-05-17T14:01:23.715Z,25.14
2017-05-17T14:02:33.674Z,25.06
2017-05-17T14:03:43.953Z,24.97
2017-05-17T14:04:54.271Z,24.78
2017-05-17T14:06:03.663Z,24.58
2017-05-17T14:07:13.939Z,24.43
2017-05-17T14:08:24.229Z,24.37
2017-05-17T14:09:34.197Z,24.24
2017-05-17T14:10:44.159Z,24.1
2017-05-17T14:11:54.137Z,24.07
2017-05-17T14:13:04.412Z,24.03
2017-05-17T14:14:14.696Z,24.06
2017-05-17T14:15:24.346Z,23.95
2017-05-17T14:16:34.622Z,24.07
2017-05-17T14:17:44.901Z,23.94
2017-05-17T14:18:54.865Z,23.88
2017-05-17T14:20:04.827Z,23.66
2017-05-17T14:21:14.788Z,23.59
2017-05-17T14:22:24.751Z,23.48
2017-05-17T14:23:35.060Z,23.37
2017-05-17T14:24:45.340Z,23.33
2017-05-17T14:25:55.616Z,23.28
2017-05-17T14:27:04.952Z,23.37
2017-05-17T14:28:15.238Z,23.51
2017-05-17T14:29:25.527Z,23.47
2017-05-17T14:30:35.487Z,23.36
2017-05-17T14:31:45.770Z,23.32
2017-05-17T14:32:56.046Z,23.28
2017-05-17T14:34:06.328Z,23.29
2017-05-17T14:35:16.291Z,23.17
2017-05-17T14:36:26.560Z,22.91
2017-05-17T14:37:36.531Z,22.93
2017-05-17T14:38:46.813Z,22.89
2017-05-17T14:39:57.083Z,22.91
2017-05-17T14:41:07.050Z,23.28
2017-05-17T14:42:17.323Z,23.44
2017-05-17T14:43:27.659Z,23.92
2017-05-17T14:44:37.938Z,24.06
2017-05-17T14:45:47.919Z,24.32
2017-05-17T14:46:58.198Z,24.63
2017-05-17T14:48:07.842Z,24.99
2017-05-17T14:49:17.497Z,25.26
2017-05-17T14:50:27.460Z,25.76
2017-05-17T14:51:37.740Z,25.93
2017-05-17T14:52:48.027Z,26.41
2017-05-17T14:53:58.323Z,26.83
2017-05-17T14:55:08.600Z,26.97
2017-05-17T14:56:18.880Z,27.07
2017-05-17T14:57:29.185Z,27.33
2017-05-17T14:58:39.461Z,27.28
2017-05-17T14:59:49.743Z,27.33
2017-05-17T15:01:00.022Z,27.47
2017-05-17T15:02:09.989Z,27.67
2017-05-17T15:03:20.269Z,27.76
2017-05-17T15:04:30.232Z,28.41
2017-05-17T15:05:40.504Z,28.78
2017-05-17T15:06:50.836Z,28.83
2017-05-17T15:08:01.125Z,28.68
2017-05-17T15:09:11.406Z,28.47
2017-05-17T15:10:21.062Z,28.25
2017-05-17T15:11:31.344Z,27.93
2017-05-17T15:12:41.623Z,27.5
2017-05-17T15:13:51.910Z,27.2
2017-05-17T15:15:02.200Z,26.96
2017-05-17T15:16:12.475Z,26.61